Time;durP1;ratioP1;P1;durP2;ratioP2;P2;SDS_P1;SDS_P2;PMS_P1;PMS_P2;Temp;Humidity;BMP_temperature;BMP_pressure;BME280_temperature;BME280_humidity;BME280_pressure;Samples;Min_cycle;Max_cycle;Signal;HPM_P1;HPM_P2
2022/05/28 00:01:08;;;;;;;9.18;1.88;;;12.80;99.90;;;;;;5118961;27;20149;-66
2022/05/28 00:03:34;;;;;;;6.38;1.65;;;12.80;99.90;;;;;;5137557;27;20054;-66
2022/05/28 00:06:00;;;;;;;7.47;1.63;;;12.90;99.90;;;;;;5145714;27;20126;-66
2022/05/28 00:08:26;;;;;;;9.40;1.77;;;12.80;99.90;;;;;;5146557;27;20102;-66
2022/05/28 00:10:55;;;;;;;9.52;1.35;;;12.80;99.90;;;;;;5144995;27;20332;-66
2022/05/28 00:13:21;;;;;;;6.95;1.50;;;12.80;99.90;;;;;;5124416;27;20444;-66
2022/05/28 00:15:46;;;;;;;8.30;2.03;;;12.80;99.90;;;;;;5146327;27;20063;-66
2022/05/28 00:18:12;;;;;;;10.32;1.80;;;12.80;99.90;;;;;;5122767;27;20103;-65
2022/05/28 00:20:38;;;;;;;7.45;1.55;;;12.80;99.90;;;;;;5144249;27;20038;-68
2022/05/28 00:23:04;;;;;;;7.40;1.67;;;12.80;99.90;;;;;;5145350;27;20070;-69
2022/05/28 00:25:30;;;;;;;10.65;1.60;;;12.70;99.90;;;;;;5143803;27;20554;-66
2022/05/28 00:27:55;;;;;;;9.07;1.60;;;12.70;99.90;;;;;;5146488;27;20037;-66
2022/05/28 00:30:22;;;;;;;9.52;2.10;;;12.80;99.90;;;;;;5144709;27;20023;-66
2022/05/28 00:32:48;;;;;;;9.07;1.60;;;12.70;99.90;;;;;;5144335;27;20030;-66
2022/05/28 00:35:17;;;;;;;10.85;1.60;;;12.80;99.90;;;;;;5140517;27;20051;-66
2022/05/28 00:37:44;;;;;;;9.02;2.13;;;12.80;99.90;;;;;;5145528;27;20070;-67
2022/05/28 00:40:14;;;;;;;6.10;1.50;;;12.70;99.90;;;;;;5122908;27;20039;-66
2022/05/28 00:42:40;;;;;;;7.32;1.65;;;12.50;99.90;;;;;;5145422;27;20195;-67
2022/05/28 00:45:07;;;;;;;4.10;1.27;;;12.30;99.90;;;;;;5146212;27;20110;-64
2022/05/28 00:47:33;;;;;;;8.02;1.48;;;12.10;99.90;;;;;;5144399;27;20118;-64
2022/05/28 00:49:58;;;;;;;8.93;2.13;;;12.00;99.90;;;;;;5146246;27;20171;-65
2022/05/28 00:52:26;;;;;;;7.57;1.73;;;11.90;99.90;;;;;;5124515;27;20492;-63
2022/05/28 00:54:52;;;;;;;10.05;1.58;;;11.80;99.90;;;;;;5144205;27;20033;-63
2022/05/28 00:57:20;;;;;;;8.07;1.48;;;11.80;99.90;;;;;;5145709;27;20508;-66
2022/05/28 00:59:46;;;;;;;8.73;1.95;;;11.70;99.90;;;;;;5146286;27;20066;-63
2022/05/28 01:02:29;;;;;;;8.57;1.80;;;11.70;99.90;;;;;;5144061;27;20053;-64
2022/05/28 01:05:06;;;;;;;12.63;1.70;;;11.80;99.90;;;;;;5141602;27;20038;-63
2022/05/28 01:08:04;;;;;;;6.78;1.67;;;11.80;99.90;;;;;;5144250;27;20049;-64
2022/05/28 01:10:46;;;;;;;9.40;1.90;;;11.80;99.90;;;;;;5145665;27;20086;-66
2022/05/28 01:13:35;;;;;;;11.02;2.55;;;11.80;99.90;;;;;;5145699;27;20027;-64
2022/05/28 01:16:11;;;;;;;7.90;1.92;;;11.80;99.90;;;;;;5135474;27;20065;-64
2022/05/28 01:18:56;;;;;;;8.00;2.05;;;11.70;99.90;;;;;;5120433;27;20161;-63
2022/05/28 01:21:47;;;;;;;10.65;1.85;;;11.60;99.90;;;;;;5120595;27;20078;-63
2022/05/28 01:24:52;;;;;;;8.68;1.60;;;11.50;99.90;;;;;;5121783;27;20456;-63
2022/05/28 01:27:28;;;;;;;10.30;1.70;;;11.50;99.90;;;;;;5119846;27;20123;-62
2022/05/28 01:29:58;;;;;;;8.05;1.58;;;11.40;99.90;;;;;;5118397;27;20031;-64
2022/05/28 01:32:26;;;;;;;8.93;1.70;;;11.30;99.90;;;;;;5123816;27;20330;-64
2022/05/28 01:34:53;;;;;;;9.75;1.77;;;11.30;99.90;;;;;;5122145;27;20031;-63
2022/05/28 01:37:20;;;;;;;7.63;2.13;;;11.30;99.90;;;;;;5124371;27;20118;-63
2022/05/28 01:39:49;;;;;;;8.20;1.63;;;11.20;99.90;;;;;;5124866;27;20024;-63
2022/05/28 01:42:17;;;;;;;7.10;1.60;;;11.20;99.90;;;;;;5119986;27;20061;-63
2022/05/28 01:44:45;;;;;;;10.60;1.85;;;11.20;99.90;;;;;;5101359;27;20036;-64
2022/05/28 01:47:13;;;;;;;8.95;1.65;;;11.10;99.90;;;;;;5122676;27;20027;-65
2022/05/28 01:49:39;;;;;;;9.75;1.60;;;11.10;99.90;;;;;;5123193;27;20043;-63
2022/05/28 01:52:06;;;;;;;10.45;1.63;;;11.00;99.90;;;;;;5122556;27;20042;-63
2022/05/28 01:54:40;;;;;;;10.10;2.00;;;10.90;99.90;;;;;;5124103;27;20113;-63
2022/05/28 01:57:06;;;;;;;6.80;1.73;;;10.80;99.90;;;;;;5123644;27;20035;-64
2022/05/28 01:59:34;;;;;;;6.55;1.58;;;10.80;99.90;;;;;;5099944;27;20031;-64
2022/05/28 02:02:02;;;;;;;8.82;1.52;;;10.70;99.90;;;;;;5120038;27;20425;-64
2022/05/28 02:04:30;;;;;;;8.73;1.73;;;10.70;99.90;;;;;;5123036;27;20023;-63
2022/05/28 02:06:56;;;;;;;10.48;1.92;;;10.60;99.90;;;;;;5118961;27;20473;-67
2022/05/28 02:09:29;;;;;;;9.50;1.70;;;10.60;99.90;;;;;;5123187;27;20033;-63
2022/05/28 02:12:09;;;;;;;5.70;1.17;;;10.60;99.90;;;;;;5118035;27;20183;-63
2022/05/28 02:15:01;;;;;;;8.77;2.05;;;10.50;99.90;;;;;;5118168;27;20126;-63
2022/05/28 02:17:52;;;;;;;8.30;2.10;;;10.50;99.90;;;;;;5110309;27;20380;-63
2022/05/28 02:20:39;;;;;;;8.32;1.33;;;10.40;99.90;;;;;;5120172;27;20302;-63
2022/05/28 02:23:25;;;;;;;11.35;1.70;;;10.40;99.90;;;;;;5121340;27;20040;-64
2022/05/28 02:26:11;;;;;;;7.80;1.70;;;10.40;99.90;;;;;;5122843;27;20043;-64
2022/05/28 02:28:37;;;;;;;9.88;1.63;;;10.40;99.90;;;;;;5117915;27;20039;-63
2022/05/28 02:31:24;;;;;;;7.70;2.00;;;10.40;99.90;;;;;;5122994;27;20106;-63
2022/05/28 02:33:50;;;;;;;8.75;1.83;;;10.40;99.90;;;;;;5122560;27;20364;-64
2022/05/28 02:36:17;;;;;;;6.68;1.50;;;10.30;99.90;;;;;;5121654;27;20031;-65
2022/05/28 02:38:43;;;;;;;10.43;1.80;;;10.30;99.90;;;;;;5122474;27;20128;-63
2022/05/28 02:41:09;;;;;;;9.23;2.22;;;10.30;99.90;;;;;;5123550;27;20134;-64
2022/05/28 02:43:36;;;;;;;7.85;2.08;;;10.30;99.90;;;;;;5120342;27;20062;-64
2022/05/28 02:46:02;;;;;;;7.15;1.95;;;10.30;99.90;;;;;;5122554;27;20093;-64
2022/05/28 02:48:28;;;;;;;8.90;2.17;;;10.20;99.90;;;;;;5123318;27;20334;-64
2022/05/28 02:50:53;;;;;;;7.95;1.58;;;10.20;99.90;;;;;;5121728;27;20463;-64
2022/05/28 02:53:19;;;;;;;7.43;1.73;;;10.20;99.90;;;;;;5115752;27;20500;-64
2022/05/28 02:55:45;;;;;;;7.63;2.05;;;10.10;99.90;;;;;;5122506;27;20031;-63
2022/05/28 02:58:11;;;;;;;9.35;1.80;;;10.10;99.90;;;;;;5121098;27;20035;-64
2022/05/28 03:00:37;;;;;;;10.75;1.77;;;10.10;99.90;;;;;;5122972;27;20512;-64
2022/05/28 03:03:02;;;;;;;8.77;1.65;;;10.10;99.90;;;;;;5122418;27;20318;-64
2022/05/28 03:05:28;;;;;;;8.10;2.45;;;10.00;99.90;;;;;;5112237;27;20078;-64
2022/05/28 03:07:53;;;;;;;8.82;1.65;;;10.10;99.90;;;;;;5123091;27;20036;-64
2022/05/28 03:10:19;;;;;;;11.93;2.42;;;10.10;99.90;;;;;;5113628;27;20092;-64
2022/05/28 03:12:45;;;;;;;8.25;1.92;;;10.00;99.90;;;;;;5120003;27;20088;-63
2022/05/28 03:15:11;;;;;;;11.13;1.80;;;10.00;99.90;;;;;;5123265;27;20035;-67
2022/05/28 03:17:37;;;;;;;12.68;2.05;;;10.00;99.90;;;;;;5140129;27;20141;-64
2022/05/28 03:20:04;;;;;;;8.40;1.80;;;10.10;99.90;;;;;;5142986;27;20046;-64
2022/05/28 03:22:31;;;;;;;12.93;2.25;;;10.10;99.90;;;;;;5142536;27;20072;-64
2022/05/28 03:24:57;;;;;;;11.10;2.33;;;10.10;99.90;;;;;;5142041;27;20111;-64
2022/05/28 03:27:23;;;;;;;12.52;1.88;;;10.00;99.90;;;;;;5120521;27;20036;-63
2022/05/28 03:29:49;;;;;;;14.23;2.67;;;10.00;99.90;;;;;;5141509;27;20038;-64
2022/05/28 03:32:14;;;;;;;10.25;1.85;;;10.00;99.90;;;;;;5140563;27;20031;-64
2022/05/28 03:34:40;;;;;;;7.22;1.90;;;10.00;99.90;;;;;;5142220;27;20115;-65
2022/05/28 03:37:05;;;;;;;9.90;2.30;;;9.90;99.90;;;;;;5143257;27;20039;-64
2022/05/28 03:39:31;;;;;;;13.70;2.10;;;9.90;99.90;;;;;;5142122;27;20042;-66
2022/05/28 03:41:57;;;;;;;7.85;2.00;;;9.90;99.90;;;;;;5125700;27;20117;-64
2022/05/28 03:44:22;;;;;;;8.85;1.90;;;9.90;99.90;;;;;;5146348;27;20371;-64
2022/05/28 03:46:48;;;;;;;9.10;2.00;;;9.90;99.90;;;;;;5145621;27;20090;-63
2022/05/28 03:49:22;;;;;;;11.50;2.08;;;9.90;99.90;;;;;;5144254;27;20367;-64
2022/05/28 03:51:49;;;;;;;7.40;2.00;;;9.90;99.90;;;;;;5146423;27;20023;-64
2022/05/28 03:54:14;;;;;;;12.65;2.40;;;9.90;99.90;;;;;;5142298;27;20110;-63
2022/05/28 03:56:42;;;;;;;11.85;1.85;;;9.90;99.90;;;;;;5146885;27;20404;-67
2022/05/28 03:59:08;;;;;;;12.02;2.05;;;9.90;99.90;;;;;;5147672;27;20148;-64
2022/05/28 04:01:34;;;;;;;11.65;2.40;;;10.00;99.90;;;;;;5144859;27;20118;-64
2022/05/28 04:04:00;;;;;;;11.95;2.60;;;10.00;99.90;;;;;;5146528;27;20183;-64
2022/05/28 04:06:26;;;;;;;9.77;1.90;;;10.00;99.90;;;;;;5123527;27;20539;-64
2022/05/28 04:08:51;;;;;;;12.10;2.08;;;10.00;99.90;;;;;;5106482;27;20037;-64
2022/05/28 04:11:17;;;;;;;11.98;2.30;;;9.90;99.90;;;;;;5144336;27;20039;-63
2022/05/28 04:13:44;;;;;;;8.68;1.95;;;10.00;99.90;;;;;;5145638;27;20051;-65
2022/05/28 04:16:10;;;;;;;7.45;2.17;;;10.00;99.90;;;;;;5145083;27;20047;-67
2022/05/28 04:18:36;;;;;;;8.93;2.13;;;10.00;99.90;;;;;;5146468;27;20336;-64
2022/05/28 04:21:02;;;;;;;11.10;2.15;;;10.10;99.90;;;;;;5146354;27;20112;-64
2022/05/28 04:23:29;;;;;;;12.00;2.00;;;10.20;99.90;;;;;;5144040;27;20038;-65
2022/05/28 04:25:54;;;;;;;10.63;1.65;;;10.20;99.90;;;;;;5141358;27;20035;-65
2022/05/28 04:28:20;;;;;;;12.90;2.08;;;10.30;99.90;;;;;;5145941;27;20033;-64
2022/05/28 04:30:46;;;;;;;10.57;1.95;;;10.30;99.90;;;;;;5142501;27;20023;-64
2022/05/28 04:33:11;;;;;;;13.50;2.28;;;10.30;99.90;;;;;;5124542;27;20456;-64
2022/05/28 04:35:37;;;;;;;10.07;2.25;;;10.30;99.90;;;;;;5144943;27;20114;-64
2022/05/28 04:38:03;;;;;;;10.13;2.30;;;10.30;99.90;;;;;;5145673;27;20058;-64
2022/05/28 04:40:28;;;;;;;12.18;2.25;;;10.40;99.90;;;;;;5146735;27;20043;-63
2022/05/28 04:42:54;;;;;;;11.43;2.55;;;10.40;99.90;;;;;;5138989;27;20110;-64
2022/05/28 04:45:20;;;;;;;10.40;2.10;;;10.50;99.90;;;;;;5145673;27;20397;-64
2022/05/28 04:47:45;;;;;;;13.32;2.20;;;10.60;99.90;;;;;;5122152;27;20026;-64
2022/05/28 04:50:11;;;;;;;7.15;2.28;;;10.70;99.90;;;;;;5142933;27;20057;-64
2022/05/28 04:52:38;;;;;;;13.18;2.22;;;10.90;99.90;;;;;;5142704;27;20046;-64
2022/05/28 04:55:08;;;;;;;9.52;2.22;;;11.00;99.90;;;;;;5124498;27;20046;-64
2022/05/28 04:57:34;;;;;;;11.48;2.25;;;11.00;99.90;;;;;;5141388;27;20031;-66
2022/05/28 05:00:00;;;;;;;12.20;2.63;;;10.80;99.90;;;;;;5145673;27;20117;-64
2022/05/28 05:02:27;;;;;;;12.80;2.58;;;10.80;99.90;;;;;;5122506;27;20077;-65
2022/05/28 05:04:56;;;;;;;16.02;2.20;;;10.80;99.90;;;;;;5143502;27;20047;-64
2022/05/28 05:07:22;;;;;;;11.10;2.88;;;10.90;99.90;;;;;;5144239;27;20103;-64
2022/05/28 05:09:48;;;;;;;11.65;2.45;;;11.10;99.90;;;;;;5144838;27;20035;-64
2022/05/28 05:12:13;;;;;;;12.65;2.50;;;11.70;99.90;;;;;;5140716;27;20027;-64
2022/05/28 05:14:39;;;;;;;9.88;2.50;;;12.50;99.90;;;;;;5144672;27;20114;-64
2022/05/28 05:17:05;;;;;;;11.52;2.53;;;13.20;99.90;;;;;;5122136;27;20050;-64
2022/05/28 05:19:30;;;;;;;11.80;2.30;;;13.90;99.90;;;;;;5143331;27;20054;-64
2022/05/28 05:21:56;;;;;;;9.13;1.83;;;14.30;99.90;;;;;;5143408;27;20084;-64
2022/05/28 05:24:23;;;;;;;11.45;2.70;;;14.60;99.90;;;;;;5143765;27;20038;-66
2022/05/28 05:26:49;;;;;;;12.98;2.40;;;15.20;99.90;;;;;;5143634;27;20074;-66
2022/05/28 05:29:14;;;;;;;12.02;2.50;;;15.40;99.90;;;;;;5145332;27;20061;-64
2022/05/28 05:31:40;;;;;;;10.25;2.78;;;15.60;99.90;;;;;;5142323;27;20448;-67
2022/05/28 05:34:07;;;;;;;16.77;2.30;;;15.50;99.90;;;;;;5142250;27;20097;-65
2022/05/28 05:36:33;;;;;;;7.47;1.90;;;15.90;99.90;;;;;;5124469;27;20454;-65
2022/05/28 05:38:59;;;;;;;9.80;2.38;;;16.20;99.90;;;;;;5143849;27;20349;-65
2022/05/28 05:41:24;;;;;;;11.57;2.83;;;16.20;99.90;;;;;;5144347;27;20461;-65
2022/05/28 05:43:50;;;;;;;10.70;2.33;;;16.30;99.90;;;;;;5139824;27;20084;-65
2022/05/28 05:46:16;;;;;;;12.27;2.08;;;16.40;99.90;;;;;;5143919;27;20526;-66
2022/05/28 05:48:42;;;;;;;15.60;2.88;;;16.60;99.90;;;;;;5144440;27;20696;-65
2022/05/28 05:51:13;;;;;;;12.27;2.45;;;16.60;99.90;;;;;;5145328;27;20061;-64
2022/05/28 05:53:39;;;;;;;8.40;2.40;;;16.40;99.90;;;;;;5137213;27;20401;-65
2022/05/28 05:56:05;;;;;;;12.23;2.50;;;16.90;99.90;;;;;;5144001;27;20483;-65
2022/05/28 05:58:33;;;;;;;10.55;2.15;;;16.90;99.90;;;;;;5145503;27;20041;-67
2022/05/28 06:00:59;;;;;;;8.98;2.45;;;17.30;99.90;;;;;;5144040;27;20074;-65
2022/05/28 06:03:25;;;;;;;8.75;2.30;;;17.70;99.90;;;;;;5137558;27;20793;-65
2022/05/28 06:05:59;;;;;;;10.20;2.30;;;17.40;99.90;;;;;;5144879;27;20121;-66
2022/05/28 06:08:26;;;;;;;10.95;2.20;;;17.50;99.90;;;;;;5144015;27;20031;-65
2022/05/28 06:10:52;;;;;;;10.90;2.25;;;17.50;99.90;;;;;;5132590;27;20030;-66
2022/05/28 06:13:18;;;;;;;9.85;2.05;;;17.40;99.90;;;;;;5128103;27;20412;-65
2022/05/28 06:15:45;;;;;;;11.48;2.38;;;16.90;99.90;;;;;;5135906;27;20537;-66
2022/05/28 06:18:13;;;;;;;12.05;2.50;;;16.90;99.90;;;;;;5151725;27;20065;-65
2022/05/28 06:20:39;;;;;;;9.30;2.10;;;16.90;99.90;;;;;;5152291;27;20034;-65
2022/05/28 06:23:05;;;;;;;10.73;2.60;;;17.30;99.90;;;;;;5148584;27;20048;-65
2022/05/28 06:25:31;;;;;;;13.90;2.47;;;17.30;99.90;;;;;;5148102;27;20150;-65
2022/05/28 06:27:57;;;;;;;16.13;2.40;;;17.10;99.90;;;;;;5152394;27;20439;-65
2022/05/28 06:30:23;;;;;;;11.10;2.45;;;17.20;99.90;;;;;;5133326;27;20035;-66
2022/05/28 06:32:48;;;;;;;11.30;2.63;;;17.20;99.90;;;;;;5132531;27;20070;-65
2022/05/28 06:35:14;;;;;;;7.35;2.28;;;17.50;99.90;;;;;;5126389;27;20092;-67
2022/05/28 06:37:40;;;;;;;11.45;2.72;;;17.50;99.90;;;;;;5132502;27;20597;-66
2022/05/28 06:40:06;;;;;;;9.10;2.25;;;17.70;99.90;;;;;;5132817;27;20039;-66
2022/05/28 06:42:33;;;;;;;15.85;2.90;;;17.70;99.90;;;;;;5130712;27;20088;-64
2022/05/28 06:44:59;;;;;;;11.30;2.55;;;17.60;99.90;;;;;;5132609;27;20047;-65
2022/05/28 06:47:25;;;;;;;9.43;2.50;;;17.00;99.90;;;;;;5133069;27;20031;-66
2022/05/28 06:52:36;;;;;;;11.18;2.33;;;17.10;99.90;;;;;;5097803;27;20043;-66
2022/05/28 06:55:04;;;;;;;11.13;2.88;;;17.00;99.90;;;;;;5132720;27;20035;-66
2022/05/28 06:57:29;;;;;;;8.00;2.40;;;16.30;99.90;;;;;;5132724;27;20158;-66
2022/05/28 06:59:57;;;;;;;9.70;2.75;;;16.20;99.90;;;;;;5132181;27;20110;-66
2022/05/28 07:02:22;;;;;;;12.57;2.67;;;15.80;99.90;;;;;;5130574;27;20027;-66
2022/05/28 07:04:48;;;;;;;9.55;2.25;;;15.40;99.90;;;;;;5131974;27;20042;-66
2022/05/28 07:07:14;;;;;;;11.65;2.80;;;14.80;99.90;;;;;;5118266;27;20521;-66
2022/05/28 07:09:40;;;;;;;12.27;2.50;;;14.70;99.90;;;;;;5116745;27;20036;-67
2022/05/28 07:12:06;;;;;;;9.68;2.72;;;14.60;99.90;;;;;;5118730;27;20138;-68
2022/05/28 07:14:32;;;;;;;9.57;2.40;;;14.40;99.90;;;;;;5126078;27;20461;-67
2022/05/28 07:16:57;;;;;;;11.13;2.45;;;14.10;99.90;;;;;;5134515;27;20055;-66
2022/05/28 07:19:23;;;;;;;10.85;2.75;;;14.00;99.90;;;;;;5134061;27;20491;-67
2022/05/28 07:21:48;;;;;;;13.10;2.95;;;14.00;99.90;;;;;;5126767;27;20054;-65
2022/05/28 07:24:14;;;;;;;12.85;2.33;;;14.40;99.90;;;;;;5090186;27;20112;-66
2022/05/28 07:26:40;;;;;;;21.27;3.83;;;14.80;99.90;;;;;;5146249;27;20428;-67
2022/05/28 07:29:08;;;;;;;12.20;2.30;;;14.70;99.90;;;;;;5143028;27;20035;-68
2022/05/28 07:31:34;;;;;;;10.45;2.72;;;14.70;99.90;;;;;;5132124;27;20047;-66
2022/05/28 07:34:00;;;;;;;12.88;2.75;;;14.60;99.90;;;;;;5134472;27;20085;-66
2022/05/28 07:36:26;;;;;;;10.85;2.80;;;14.50;99.90;;;;;;5139596;27;20487;-67
2022/05/28 07:38:53;;;;;;;10.70;2.50;;;14.60;99.90;;;;;;5142903;27;20074;-65
2022/05/28 07:41:26;;;;;;;14.25;2.67;;;14.70;99.90;;;;;;5149198;27;20031;-67
2022/05/28 07:43:53;;;;;;;14.35;2.20;;;14.80;99.90;;;;;;5139083;27;20067;-64
2022/05/28 07:46:21;;;;;;;10.20;2.20;;;14.90;99.90;;;;;;5142537;27;20112;-66
2022/05/28 07:48:47;;;;;;;11.15;2.50;;;14.80;99.90;;;;;;5121634;27;20087;-66
2022/05/28 07:51:14;;;;;;;10.30;2.28;;;15.00;99.90;;;;;;5141484;27;20034;-66
2022/05/28 07:53:40;;;;;;;10.32;2.13;;;15.40;99.90;;;;;;5120062;28;20035;-67
2022/05/28 07:56:06;;;;;;;10.70;2.17;;;15.40;99.90;;;;;;5119897;27;20367;-66
2022/05/28 07:58:32;;;;;;;9.20;2.08;;;15.20;99.90;;;;;;5137523;27;20483;-66
2022/05/28 08:00:58;;;;;;;13.63;2.67;;;14.90;99.90;;;;;;5133428;27;20138;-66
2022/05/28 08:03:25;;;;;;;8.82;2.50;;;14.60;99.90;;;;;;5133403;27;20045;-65
2022/05/28 08:05:53;;;;;;;13.25;2.22;;;14.70;99.90;;;;;;5116225;27;20042;-66
2022/05/28 08:08:21;;;;;;;10.68;2.33;;;14.80;99.90;;;;;;5140770;27;20052;-66
2022/05/28 08:10:46;;;;;;;12.00;2.83;;;15.00;99.90;;;;;;5121506;27;20042;-67
2022/05/28 08:13:15;;;;;;;12.48;2.50;;;15.10;99.90;;;;;;5142092;27;20027;-66
2022/05/28 08:15:43;;;;;;;10.55;2.55;;;15.00;99.90;;;;;;5119432;27;20043;-68
2022/05/28 08:18:11;;;;;;;11.20;2.63;;;14.70;99.90;;;;;;5140852;27;20461;-67
2022/05/28 08:23:21;;;;;;;13.05;2.85;;;14.70;99.90;;;;;;5137598;27;20051;-67
2022/05/28 08:25:48;;;;;;;11.15;2.20;;;14.70;99.90;;;;;;5139590;27;20038;-66
2022/05/28 08:28:15;;;;;;;7.18;1.63;;;15.00;99.90;;;;;;5138914;27;20041;-67
2022/05/28 08:30:41;;;;;;;10.52;2.08;;;15.20;99.90;;;;;;5137195;27;20034;-67
2022/05/28 08:33:09;;;;;;;9.77;3.03;;;15.50;99.90;;;;;;5113419;27;20027;-64
2022/05/28 08:35:36;;;;;;;11.60;2.67;;;15.70;99.90;;;;;;5138154;27;20103;-67
2022/05/28 08:38:08;;;;;;;10.88;2.10;;;15.60;99.90;;;;;;5142410;27;20437;-66
2022/05/28 08:40:54;;;;;;;9.60;2.40;;;15.40;99.90;;;;;;5146601;27;20074;-68
2022/05/28 08:43:22;;;;;;;12.95;2.30;;;15.10;99.90;;;;;;5140733;27;20039;-67
2022/05/28 08:45:50;;;;;;;10.57;2.30;;;15.00;99.90;;;;;;5142487;27;20035;-67
2022/05/28 08:48:26;;;;;;;11.27;2.33;;;14.90;99.90;;;;;;5143867;27;20027;-66
2022/05/28 08:51:16;;;;;;;9.40;2.22;;;15.10;99.90;;;;;;5145089;27;20062;-69
2022/05/28 08:53:56;;;;;;;11.68;2.88;;;15.20;99.90;;;;;;5144612;27;20039;-66
2022/05/28 08:56:26;;;;;;;11.93;2.55;;;15.30;99.90;;;;;;5145560;27;20658;-66
2022/05/28 08:59:08;;;;;;;10.98;2.42;;;15.50;99.90;;;;;;5146777;27;20035;-67
2022/05/28 09:01:38;;;;;;;8.93;2.20;;;15.50;99.90;;;;;;5147398;27;20049;-65
2022/05/28 09:04:10;;;;;;;15.23;3.20;;;15.50;99.90;;;;;;5144395;27;20035;-64
2022/05/28 09:06:49;;;;;;;12.15;2.33;;;15.70;99.90;;;;;;5144164;27;20039;-67
2022/05/28 09:09:16;;;;;;;9.30;2.00;;;15.60;99.90;;;;;;5115971;27;20047;-66
2022/05/28 09:12:02;;;;;;;10.15;2.25;;;15.60;99.90;;;;;;5121547;27;20039;-66
2022/05/28 09:14:34;;;;;;;12.20;2.47;;;15.80;99.90;;;;;;5146325;27;20054;-66
2022/05/28 09:17:24;;;;;;;9.52;1.98;;;15.90;99.90;;;;;;5142769;27;20459;-66
2022/05/28 09:19:53;;;;;;;9.88;2.42;;;16.10;99.90;;;;;;5138325;27;20517;-66
2022/05/28 09:22:22;;;;;;;16.02;2.50;;;15.80;99.90;;;;;;5143950;27;20418;-65
2022/05/28 09:24:47;;;;;;;8.95;2.40;;;15.40;99.90;;;;;;5121780;27;20049;-66
2022/05/28 09:27:39;;;;;;;12.63;2.50;;;15.40;99.90;;;;;;5143464;27;20031;-66
2022/05/28 09:30:32;;;;;;;10.73;2.40;;;15.40;99.90;;;;;;5143936;27;20372;-66
2022/05/28 09:33:06;;;;;;;9.45;2.15;;;15.70;99.90;;;;;;5139865;27;20041;-66
2022/05/28 09:35:50;;;;;;;;;;;15.90;99.90;;;;;;5122088;27;20050;-67
2022/05/28 09:38:34;;;;;;;8.05;2.20;;;15.70;99.90;;;;;;5140961;27;19959;-66
2022/05/28 09:41:12;;;;;;;8.57;2.08;;;15.70;99.90;;;;;;5119303;27;20047;-65
2022/05/28 09:43:49;;;;;;;10.85;2.22;;;15.60;99.90;;;;;;5139720;27;20039;-66
2022/05/28 09:46:34;;;;;;;10.68;2.40;;;15.70;99.90;;;;;;5140842;27;20463;-66
2022/05/28 09:49:11;;;;;;;10.98;2.72;;;15.50;99.90;;;;;;5140476;27;20490;-66
2022/05/28 09:51:37;;;;;;;13.30;2.45;;;15.30;99.90;;;;;;5143167;27;20039;-66
2022/05/28 09:54:20;;;;;;;8.27;2.45;;;15.20;99.90;;;;;;5122507;27;20043;-67
2022/05/28 09:56:58;;;;;;;9.85;2.05;;;15.10;99.90;;;;;;5115389;27;20067;-65
2022/05/28 09:59:30;;;;;;;10.75;2.33;;;15.10;99.90;;;;;;5136013;27;20031;-65
2022/05/28 10:02:25;;;;;;;10.45;2.08;;;15.00;99.90;;;;;;5125934;27;20038;-65
2022/05/28 10:04:51;;;;;;;9.65;2.38;;;14.90;99.90;;;;;;5124815;27;20138;-65
2022/05/28 10:07:32;;;;;;;9.10;2.22;;;15.10;99.90;;;;;;5143186;27;20118;-65
2022/05/28 10:10:12;;;;;;;9.95;2.40;;;15.10;99.90;;;;;;5117356;27;20039;-66
2022/05/28 10:12:38;;;;;;;13.77;2.20;;;15.30;99.90;;;;;;5138137;27;20092;-65
2022/05/28 10:15:09;;;;;;;12.60;2.72;;;15.50;99.90;;;;;;5143463;27;20038;-68
2022/05/28 10:17:36;;;;;;;10.05;2.45;;;15.60;99.90;;;;;;5115735;27;20380;-65
2022/05/28 10:20:10;;;;;;;10.45;2.42;;;15.50;99.90;;;;;;5121008;27;20173;-66
2022/05/28 10:22:37;;;;;;;13.98;2.75;;;15.60;99.90;;;;;;5118217;27;20031;-65
2022/05/28 10:25:09;;;;;;;10.27;2.10;;;15.60;99.90;;;;;;5120147;27;20140;-65
2022/05/28 10:27:57;;;;;;;9.90;2.15;;;15.40;99.90;;;;;;5116180;27;20038;-66
2022/05/28 10:30:26;;;;;;;12.10;2.05;;;15.50;99.90;;;;;;5139649;27;20031;-65
2022/05/28 10:32:52;;;;;;;10.45;2.17;;;15.60;99.90;;;;;;5140460;27;20040;-65
2022/05/28 10:35:21;;;;;;;10.40;2.30;;;15.50;99.90;;;;;;5120582;27;20075;-67
2022/05/28 10:37:47;;;;;;;10.27;2.20;;;15.50;99.90;;;;;;5103525;27;20114;-64
2022/05/28 10:40:15;;;;;;;16.45;2.83;;;15.40;99.90;;;;;;5120507;27;20118;-65
2022/05/28 10:42:41;;;;;;;10.00;3.10;;;15.30;99.90;;;;;;5120614;27;20037;-65
2022/05/28 10:45:08;;;;;;;8.63;2.40;;;15.30;99.90;;;;;;5103319;27;20500;-65
2022/05/28 10:48:00;;;;;;;11.20;2.90;;;15.40;99.90;;;;;;5115207;27;20130;-64
2022/05/28 10:50:33;;;;;;;10.23;2.97;;;15.50;99.90;;;;;;5102210;27;20440;-67
2022/05/28 10:53:21;;;;;;;16.00;3.25;;;15.30;99.90;;;;;;5116037;27;20043;-65
2022/05/28 10:55:58;;;;;;;14.23;2.58;;;15.30;99.90;;;;;;5140420;27;20485;-67
2022/05/28 10:58:37;;;;;;;9.93;2.50;;;15.30;99.90;;;;;;5118189;27;20383;-64
2022/05/28 11:01:30;;;;;;;11.48;2.80;;;15.30;99.90;;;;;;5117974;27;20039;-64
2022/05/28 11:03:59;;;;;;;11.52;2.60;;;15.40;99.90;;;;;;5117240;27;20338;-66
2022/05/28 11:06:51;;;;;;;14.63;2.85;;;15.20;99.90;;;;;;5118939;27;20051;-65
2022/05/28 11:09:35;;;;;;;10.55;2.42;;;15.20;99.90;;;;;;5100573;27;20062;-66
2022/05/28 11:12:04;;;;;;;13.18;3.17;;;15.20;99.90;;;;;;5137629;27;20481;-65
2022/05/28 11:14:48;;;;;;;12.82;2.95;;;15.20;99.90;;;;;;5139986;27;20042;-64
2022/05/28 11:17:25;;;;;;;13.90;3.08;;;15.40;99.90;;;;;;5141110;27;20372;-65
2022/05/28 11:20:14;;;;;;;12.85;2.58;;;15.60;99.90;;;;;;5141801;27;20385;-64
2022/05/28 11:22:51;;;;;;;14.40;2.92;;;15.90;99.90;;;;;;5124864;27;20115;-68
2022/05/28 11:25:37;;;;;;;12.10;2.33;;;16.00;99.90;;;;;;5139552;27;20116;-66
2022/05/28 11:28:20;;;;;;;9.23;2.60;;;16.10;99.90;;;;;;5141111;27;20217;-66
2022/05/28 11:30:50;;;;;;;9.20;2.10;;;16.20;99.90;;;;;;5113017;27;20035;-66
2022/05/28 11:33:19;;;;;;;7.45;2.55;;;16.10;99.90;;;;;;5134559;27;20452;-65
2022/05/28 11:35:50;;;;;;;12.55;2.20;;;16.00;99.90;;;;;;5137241;27;20399;-66
2022/05/28 11:38:37;;;;;;;13.40;2.40;;;15.90;99.90;;;;;;5114175;27;20039;-66
2022/05/28 11:41:31;;;;;;;10.45;2.50;;;15.80;99.90;;;;;;5135997;27;20039;-65
2022/05/28 11:44:32;;;;;;;11.00;2.20;;;15.80;99.90;;;;;;5134525;27;20046;-66
2022/05/28 11:47:12;;;;;;;10.50;2.25;;;16.10;99.90;;;;;;5137281;27;20059;-66
2022/05/28 11:52:42;;;;;;;5.55;1.80;;;16.20;99.90;;;;;;5146968;27;20057;-66
2022/05/28 11:55:14;;;;;;;8.65;2.05;;;16.20;99.30;;;;;;5150362;27;20039;-67
2022/05/28 11:58:03;;;;;;;9.63;2.75;;;16.40;99.30;;;;;;5150153;27;20057;-66
2022/05/28 12:00:35;;;;;;;7.80;1.88;;;16.60;99.90;;;;;;5148731;27;20038;-66
2022/05/28 12:03:12;;;;;;;10.48;2.50;;;16.80;99.90;;;;;;5133053;27;20039;-66
2022/05/28 12:05:42;;;;;;;11.43;2.42;;;16.80;99.90;;;;;;5133801;27;20047;-66
2022/05/28 12:08:17;;;;;;;10.30;2.53;;;16.80;99.90;;;;;;5138309;27;20043;-66
2022/05/28 12:10:51;;;;;;;8.13;2.17;;;16.90;99.90;;;;;;5145373;27;20110;-65
2022/05/28 12:13:54;;;;;;;13.27;2.47;;;16.90;99.30;;;;;;5139224;27;20108;-66
2022/05/28 12:16:39;;;;;;;8.13;2.30;;;16.90;99.70;;;;;;5141534;27;20522;-66
2022/05/28 12:19:11;;;;;;;11.15;2.70;;;17.00;99.90;;;;;;5142769;27;20078;-69
2022/05/28 12:21:38;;;;;;;9.13;2.42;;;17.00;99.90;;;;;;5141684;27;20057;-68
2022/05/28 12:24:19;;;;;;;9.60;2.40;;;16.80;99.60;;;;;;5141945;27;20384;-66
2022/05/28 12:29:33;;;;;;;8.63;2.08;;;16.90;99.00;;;;;;5144571;27;20031;-66
2022/05/28 12:32:14;;;;;;;11.73;2.40;;;17.00;99.20;;;;;;5141129;27;20039;-67
2022/05/28 12:35:01;;;;;;;9.45;2.08;;;17.20;99.00;;;;;;5143300;27;20039;-69
2022/05/28 12:37:34;;;;;;;8.52;2.10;;;17.40;98.30;;;;;;5145193;27;20043;-67
2022/05/28 12:40:06;;;;;;;6.75;2.20;;;17.40;98.00;;;;;;5143568;27;20057;-65
2022/05/28 12:42:32;;;;;;;7.53;2.10;;;17.00;98.40;;;;;;5141340;27;20114;-67
2022/05/28 12:45:12;;;;;;;7.25;2.03;;;16.80;99.60;;;;;;5122117;27;20044;-67
2022/05/28 12:47:38;;;;;;;8.32;2.00;;;16.60;99.50;;;;;;5141539;27;20039;-67
2022/05/28 12:50:28;;;;;;;8.70;2.17;;;16.90;99.90;;;;;;5145536;27;20118;-67
2022/05/28 12:53:06;;;;;;;7.95;1.98;;;16.90;98.40;;;;;;5142605;27;20054;-66
2022/05/28 12:55:35;;;;;;;7.90;1.80;;;16.70;98.10;;;;;;5146352;27;20121;-65
2022/05/28 12:58:06;;;;;;;8.98;2.10;;;16.80;99.50;;;;;;5145351;27;20379;-66
2022/05/28 13:00:48;;;;;;;9.85;2.65;;;16.50;99.90;;;;;;5144094;27;20355;-66
2022/05/28 13:03:17;;;;;;;12.60;2.35;;;16.30;99.90;;;;;;5139140;27;20111;-66
2022/05/28 13:05:48;;;;;;;11.40;2.20;;;16.20;99.90;;;;;;5144443;27;20378;-67
2022/05/28 13:08:21;;;;;;;8.75;2.55;;;16.20;99.90;;;;;;5117263;27;20402;-66
2022/05/28 13:10:54;;;;;;;9.63;2.50;;;16.10;99.90;;;;;;5143436;27;20031;-67
2022/05/28 13:13:38;;;;;;;10.90;2.70;;;16.10;99.90;;;;;;5138607;27;20484;-66